sensor_id;sensor_type;location;lat;lon;timestamp;P1;durP1;ratioP1;P2;durP2;ratioP2
7531;SDS011;3807;49.030;8.714;2022-08-20T00:00:19;0.73;;;0.73;;
7531;SDS011;3807;49.030;8.714;2022-08-20T00:02:51;0.93;;;0.90;;
7531;SDS011;3807;49.030;8.714;2022-08-20T00:05:23;1.27;;;0.90;;
7531;SDS011;3807;49.030;8.714;2022-08-20T00:07:51;1.05;;;0.90;;
7531;SDS011;3807;49.030;8.714;2022-08-20T00:10:17;0.85;;;0.70;;
7531;SDS011;3807;49.030;8.714;2022-08-20T00:12:43;1.37;;;0.80;;
7531;SDS011;3807;49.030;8.714;2022-08-20T00:15:11;0.90;;;0.70;;
7531;SDS011;3807;49.030;8.714;2022-08-20T00:17:37;2.25;;;1.00;;
7531;SDS011;3807;49.030;8.714;2022-08-20T00:20:04;1.75;;;0.85;;
7531;SDS011;3807;49.030;8.714;2022-08-20T00:22:32;1.65;;;0.88;;
7531;SDS011;3807;49.030;8.714;2022-08-20T00:24:57;1.33;;;0.80;;
7531;SDS011;3807;49.030;8.714;2022-08-20T00:27:23;0.93;;;0.90;;
7531;SDS011;3807;49.030;8.714;2022-08-20T00:29:48;0.80;;;0.80;;
7531;SDS011;3807;49.030;8.714;2022-08-20T00:32:13;5.07;;;1.02;;
7531;SDS011;3807;49.030;8.714;2022-08-20T00:34:39;3.80;;;0.98;;
7531;SDS011;3807;49.030;8.714;2022-08-20T00:37:05;1.00;;;0.90;;
7531;SDS011;3807;49.030;8.714;2022-08-20T00:39:32;1.55;;;0.95;;
7531;SDS011;3807;49.030;8.714;2022-08-20T00:41:57;1.55;;;0.90;;
7531;SDS011;3807;49.030;8.714;2022-08-20T00:44:23;1.23;;;0.88;;
7531;SDS011;3807;49.030;8.714;2022-08-20T00:46:48;2.08;;;1.10;;
7531;SDS011;3807;49.030;8.714;2022-08-20T00:49:24;1.05;;;0.85;;
7531;SDS011;3807;49.030;8.714;2022-08-20T00:51:59;1.50;;;0.90;;
7531;SDS011;3807;49.030;8.714;2022-08-20T00:54:33;1.67;;;1.00;;
7531;SDS011;3807;49.030;8.714;2022-08-20T00:57:05;1.08;;;0.80;;
7531;SDS011;3807;49.030;8.714;2022-08-20T00:59:35;0.80;;;0.80;;
7531;SDS011;3807;49.030;8.714;2022-08-20T01:02:05;3.60;;;1.10;;
7531;SDS011;3807;49.030;8.714;2022-08-20T01:04:33;1.67;;;1.00;;
7531;SDS011;3807;49.030;8.714;2022-08-20T01:07:01;1.00;;;0.90;;
7531;SDS011;3807;49.030;8.714;2022-08-20T01:09:29;1.35;;;0.90;;
7531;SDS011;3807;49.030;8.714;2022-08-20T01:11:55;1.70;;;0.90;;
7531;SDS011;3807;49.030;8.714;2022-08-20T01:14:20;1.55;;;1.00;;
7531;SDS011;3807;49.030;8.714;2022-08-20T01:16:57;2.10;;;0.90;;
7531;SDS011;3807;49.030;8.714;2022-08-20T01:19:27;2.80;;;1.00;;
7531;SDS011;3807;49.030;8.714;2022-08-20T01:21:57;0.70;;;0.70;;
7531;SDS011;3807;49.030;8.714;2022-08-20T01:24:34;1.27;;;0.80;;
7531;SDS011;3807;49.030;8.714;2022-08-20T01:27:03;1.00;;;0.82;;
7531;SDS011;3807;49.030;8.714;2022-08-20T01:29:33;1.20;;;1.00;;
7531;SDS011;3807;49.030;8.714;2022-08-20T01:32:01;0.90;;;0.70;;
7531;SDS011;3807;49.030;8.714;2022-08-20T01:34:27;1.85;;;1.00;;
7531;SDS011;3807;49.030;8.714;2022-08-20T01:36:54;2.62;;;1.00;;
7531;SDS011;3807;49.030;8.714;2022-08-20T01:39:25;1.20;;;1.00;;
7531;SDS011;3807;49.030;8.714;2022-08-20T01:44:30;1.15;;;1.05;;
7531;SDS011;3807;49.030;8.714;2022-08-20T01:46:57;1.05;;;0.90;;
7531;SDS011;3807;49.030;8.714;2022-08-20T01:49:35;2.35;;;0.95;;
7531;SDS011;3807;49.030;8.714;2022-08-20T01:52:05;1.30;;;1.10;;
7531;SDS011;3807;49.030;8.714;2022-08-20T01:54:32;1.45;;;0.82;;
7531;SDS011;3807;49.030;8.714;2022-08-20T01:59:26;1.48;;;1.12;;
7531;SDS011;3807;49.030;8.714;2022-08-20T02:01:56;1.15;;;1.05;;
7531;SDS011;3807;49.030;8.714;2022-08-20T02:04:23;2.10;;;1.30;;
7531;SDS011;3807;49.030;8.714;2022-08-20T02:06:51;1.67;;;1.10;;
7531;SDS011;3807;49.030;8.714;2022-08-20T02:09:20;1.65;;;1.30;;
7531;SDS011;3807;49.030;8.714;2022-08-20T02:11:46;1.60;;;1.20;;
7531;SDS011;3807;49.030;8.714;2022-08-20T02:14:12;2.65;;;1.30;;
7531;SDS011;3807;49.030;8.714;2022-08-20T02:16:40;1.08;;;1.08;;
7531;SDS011;3807;49.030;8.714;2022-08-20T02:19:41;1.10;;;1.00;;
7531;SDS011;3807;49.030;8.714;2022-08-20T02:22:07;1.23;;;1.10;;
7531;SDS011;3807;49.030;8.714;2022-08-20T02:24:40;1.20;;;1.00;;
7531;SDS011;3807;49.030;8.714;2022-08-20T02:27:06;1.62;;;1.20;;
7531;SDS011;3807;49.030;8.714;2022-08-20T02:29:31;2.10;;;1.40;;
7531;SDS011;3807;49.030;8.714;2022-08-20T02:31:57;1.95;;;1.33;;
7531;SDS011;3807;49.030;8.714;2022-08-20T02:34:22;2.30;;;1.20;;
7531;SDS011;3807;49.030;8.714;2022-08-20T02:36:48;1.27;;;1.17;;
7531;SDS011;3807;49.030;8.714;2022-08-20T02:39:14;3.05;;;1.40;;
7531;SDS011;3807;49.030;8.714;2022-08-20T02:41:40;3.65;;;1.50;;
7531;SDS011;3807;49.030;8.714;2022-08-20T02:44:06;2.58;;;1.40;;
7531;SDS011;3807;49.030;8.714;2022-08-20T02:46:32;1.55;;;1.40;;
7531;SDS011;3807;49.030;8.714;2022-08-20T02:48:59;1.87;;;1.40;;
7531;SDS011;3807;49.030;8.714;2022-08-20T02:51:25;1.83;;;1.30;;
7531;SDS011;3807;49.030;8.714;2022-08-20T02:53:50;1.95;;;1.33;;
7531;SDS011;3807;49.030;8.714;2022-08-20T02:56:16;2.30;;;1.35;;
7531;SDS011;3807;49.030;8.714;2022-08-20T02:58:42;2.22;;;1.42;;
7531;SDS011;3807;49.030;8.714;2022-08-20T03:01:09;1.77;;;1.40;;
7531;SDS011;3807;49.030;8.714;2022-08-20T03:03:37;1.60;;;1.45;;
7531;SDS011;3807;49.030;8.714;2022-08-20T03:06:04;2.87;;;1.40;;
7531;SDS011;3807;49.030;8.714;2022-08-20T03:08:30;2.90;;;1.60;;
7531;SDS011;3807;49.030;8.714;2022-08-20T03:10:56;1.62;;;1.40;;
7531;SDS011;3807;49.030;8.714;2022-08-20T03:13:22;2.47;;;1.73;;
7531;SDS011;3807;49.030;8.714;2022-08-20T03:15:52;4.37;;;1.70;;
7531;SDS011;3807;49.030;8.714;2022-08-20T03:18:19;2.12;;;1.58;;
7531;SDS011;3807;49.030;8.714;2022-08-20T03:20:46;1.62;;;1.52;;
7531;SDS011;3807;49.030;8.714;2022-08-20T03:23:13;1.80;;;1.70;;
7531;SDS011;3807;49.030;8.714;2022-08-20T03:25:39;2.45;;;1.70;;
7531;SDS011;3807;49.030;8.714;2022-08-20T03:28:04;2.78;;;1.92;;
7531;SDS011;3807;49.030;8.714;2022-08-20T03:30:30;2.45;;;1.58;;
7531;SDS011;3807;49.030;8.714;2022-08-20T03:32:56;2.35;;;1.98;;
7531;SDS011;3807;49.030;8.714;2022-08-20T03:35:22;2.78;;;1.77;;
7531;SDS011;3807;49.030;8.714;2022-08-20T03:37:49;4.87;;;2.10;;
7531;SDS011;3807;49.030;8.714;2022-08-20T03:40:22;4.28;;;2.00;;
7531;SDS011;3807;49.030;8.714;2022-08-20T03:42:58;3.95;;;1.80;;
7531;SDS011;3807;49.030;8.714;2022-08-20T03:45:25;2.30;;;1.62;;
7531;SDS011;3807;49.030;8.714;2022-08-20T03:47:52;2.35;;;1.83;;
7531;SDS011;3807;49.030;8.714;2022-08-20T03:50:19;5.37;;;2.08;;
7531;SDS011;3807;49.030;8.714;2022-08-20T03:52:47;3.22;;;2.15;;
7531;SDS011;3807;49.030;8.714;2022-08-20T03:55:12;4.87;;;1.98;;
7531;SDS011;3807;49.030;8.714;2022-08-20T03:57:45;2.25;;;2.05;;
7531;SDS011;3807;49.030;8.714;2022-08-20T04:00:13;3.17;;;1.80;;
7531;SDS011;3807;49.030;8.714;2022-08-20T04:02:42;3.08;;;2.22;;
7531;SDS011;3807;49.030;8.714;2022-08-20T04:05:07;2.58;;;1.90;;
7531;SDS011;3807;49.030;8.714;2022-08-20T04:07:34;4.03;;;2.10;;
7531;SDS011;3807;49.030;8.714;2022-08-20T04:10:03;2.70;;;2.33;;
7531;SDS011;3807;49.030;8.714;2022-08-20T04:12:31;3.10;;;2.20;;
7531;SDS011;3807;49.030;8.714;2022-08-20T04:14:56;4.07;;;2.20;;
7531;SDS011;3807;49.030;8.714;2022-08-20T04:17:22;4.37;;;2.60;;
7531;SDS011;3807;49.030;8.714;2022-08-20T04:19:48;4.05;;;2.00;;
7531;SDS011;3807;49.030;8.714;2022-08-20T04:22:13;2.55;;;2.10;;
7531;SDS011;3807;49.030;8.714;2022-08-20T04:24:39;2.20;;;1.80;;
7531;SDS011;3807;49.030;8.714;2022-08-20T04:27:06;2.50;;;2.03;;
7531;SDS011;3807;49.030;8.714;2022-08-20T04:29:32;4.55;;;2.40;;
7531;SDS011;3807;49.030;8.714;2022-08-20T04:31:59;2.65;;;2.40;;
7531;SDS011;3807;49.030;8.714;2022-08-20T04:34:25;2.72;;;2.25;;
7531;SDS011;3807;49.030;8.714;2022-08-20T04:36:50;3.28;;;2.42;;
7531;SDS011;3807;49.030;8.714;2022-08-20T04:39:16;3.50;;;2.58;;
7531;SDS011;3807;49.030;8.714;2022-08-20T04:41:42;3.00;;;2.50;;
7531;SDS011;3807;49.030;8.714;2022-08-20T04:44:08;2.47;;;2.05;;
7531;SDS011;3807;49.030;8.714;2022-08-20T04:46:34;2.62;;;2.15;;
7531;SDS011;3807;49.030;8.714;2022-08-20T04:49:00;3.10;;;2.08;;
7531;SDS011;3807;49.030;8.714;2022-08-20T04:51:27;7.53;;;2.65;;
7531;SDS011;3807;49.030;8.714;2022-08-20T04:53:53;5.07;;;2.70;;
7531;SDS011;3807;49.030;8.714;2022-08-20T04:56:21;3.08;;;2.70;;
7531;SDS011;3807;49.030;8.714;2022-08-20T04:58:47;3.28;;;2.20;;
7531;SDS011;3807;49.030;8.714;2022-08-20T05:01:15;2.58;;;2.25;;
7531;SDS011;3807;49.030;8.714;2022-08-20T05:03:41;7.12;;;2.55;;
7531;SDS011;3807;49.030;8.714;2022-08-20T05:06:07;3.30;;;2.80;;
7531;SDS011;3807;49.030;8.714;2022-08-20T05:08:34;3.30;;;3.00;;
7531;SDS011;3807;49.030;8.714;2022-08-20T05:11:02;3.70;;;2.90;;
7531;SDS011;3807;49.030;8.714;2022-08-20T05:13:28;3.08;;;2.78;;
7531;SDS011;3807;49.030;8.714;2022-08-20T05:15:54;3.28;;;2.72;;
7531;SDS011;3807;49.030;8.714;2022-08-20T05:18:21;3.35;;;2.65;;
7531;SDS011;3807;49.030;8.714;2022-08-20T05:20:48;4.25;;;2.95;;
7531;SDS011;3807;49.030;8.714;2022-08-20T05:23:16;3.67;;;2.70;;
7531;SDS011;3807;49.030;8.714;2022-08-20T05:25:43;3.03;;;2.28;;
7531;SDS011;3807;49.030;8.714;2022-08-20T05:28:11;5.90;;;2.60;;
7531;SDS011;3807;49.030;8.714;2022-08-20T05:30:43;4.40;;;2.90;;
7531;SDS011;3807;49.030;8.714;2022-08-20T05:33:10;8.75;;;3.08;;
7531;SDS011;3807;49.030;8.714;2022-08-20T05:35:38;3.92;;;2.85;;
7531;SDS011;3807;49.030;8.714;2022-08-20T05:38:05;4.47;;;2.70;;
7531;SDS011;3807;49.030;8.714;2022-08-20T05:40:32;3.45;;;2.65;;
7531;SDS011;3807;49.030;8.714;2022-08-20T05:42:57;3.28;;;2.62;;
7531;SDS011;3807;49.030;8.714;2022-08-20T05:45:23;6.62;;;2.90;;
7531;SDS011;3807;49.030;8.714;2022-08-20T05:47:48;6.45;;;2.80;;
7531;SDS011;3807;49.030;8.714;2022-08-20T05:50:14;4.87;;;2.90;;
7531;SDS011;3807;49.030;8.714;2022-08-20T05:52:41;4.03;;;2.72;;
7531;SDS011;3807;49.030;8.714;2022-08-20T05:55:08;2.80;;;2.50;;
7531;SDS011;3807;49.030;8.714;2022-08-20T05:57:37;3.97;;;3.17;;
7531;SDS011;3807;49.030;8.714;2022-08-20T06:00:05;4.75;;;2.80;;
7531;SDS011;3807;49.030;8.714;2022-08-20T06:02:33;3.95;;;3.15;;
7531;SDS011;3807;49.030;8.714;2022-08-20T06:05:17;3.22;;;2.70;;
7531;SDS011;3807;49.030;8.714;2022-08-20T06:07:43;3.12;;;2.80;;
7531;SDS011;3807;49.030;8.714;2022-08-20T06:10:10;5.53;;;3.30;;
7531;SDS011;3807;49.030;8.714;2022-08-20T06:12:36;4.50;;;3.10;;
7531;SDS011;3807;49.030;8.714;2022-08-20T06:15:02;5.57;;;3.12;;
7531;SDS011;3807;49.030;8.714;2022-08-20T06:17:29;3.10;;;2.80;;
7531;SDS011;3807;49.030;8.714;2022-08-20T06:19:57;4.30;;;3.17;;
7531;SDS011;3807;49.030;8.714;2022-08-20T06:22:25;3.03;;;2.70;;
7531;SDS011;3807;49.030;8.714;2022-08-20T06:24:50;3.45;;;3.10;;
7531;SDS011;3807;49.030;8.714;2022-08-20T06:27:16;5.03;;;3.12;;
7531;SDS011;3807;49.030;8.714;2022-08-20T06:29:42;2.95;;;2.60;;
7531;SDS011;3807;49.030;8.714;2022-08-20T06:32:07;4.25;;;3.20;;
7531;SDS011;3807;49.030;8.714;2022-08-20T06:34:33;3.78;;;2.55;;
7531;SDS011;3807;49.030;8.714;2022-08-20T06:36:58;3.97;;;2.65;;
7531;SDS011;3807;49.030;8.714;2022-08-20T06:39:24;4.03;;;2.95;;
7531;SDS011;3807;49.030;8.714;2022-08-20T06:41:50;4.45;;;2.67;;
7531;SDS011;3807;49.030;8.714;2022-08-20T06:44:15;3.72;;;2.80;;
7531;SDS011;3807;49.030;8.714;2022-08-20T06:46:42;6.85;;;2.72;;
7531;SDS011;3807;49.030;8.714;2022-08-20T06:49:09;3.30;;;2.67;;
7531;SDS011;3807;49.030;8.714;2022-08-20T06:51:35;4.20;;;3.03;;
7531;SDS011;3807;49.030;8.714;2022-08-20T06:54:01;4.78;;;2.45;;
7531;SDS011;3807;49.030;8.714;2022-08-20T06:56:29;6.07;;;2.47;;
7531;SDS011;3807;49.030;8.714;2022-08-20T06:58:54;3.47;;;2.70;;
7531;SDS011;3807;49.030;8.714;2022-08-20T07:01:19;3.00;;;2.53;;
7531;SDS011;3807;49.030;8.714;2022-08-20T07:03:45;3.78;;;2.85;;
7531;SDS011;3807;49.030;8.714;2022-08-20T07:06:12;4.37;;;2.53;;
7531;SDS011;3807;49.030;8.714;2022-08-20T07:08:40;3.30;;;2.85;;
7531;SDS011;3807;49.030;8.714;2022-08-20T07:11:06;3.05;;;2.55;;
7531;SDS011;3807;49.030;8.714;2022-08-20T07:13:31;2.92;;;2.60;;
7531;SDS011;3807;49.030;8.714;2022-08-20T07:15:57;4.47;;;2.40;;
7531;SDS011;3807;49.030;8.714;2022-08-20T07:18:23;5.22;;;2.50;;
7531;SDS011;3807;49.030;8.714;2022-08-20T07:20:48;4.00;;;2.72;;
7531;SDS011;3807;49.030;8.714;2022-08-20T07:23:14;3.53;;;2.83;;
7531;SDS011;3807;49.030;8.714;2022-08-20T07:25:41;3.72;;;2.50;;
7531;SDS011;3807;49.030;8.714;2022-08-20T07:28:13;6.62;;;2.83;;
7531;SDS011;3807;49.030;8.714;2022-08-20T07:30:40;5.72;;;2.70;;
7531;SDS011;3807;49.030;8.714;2022-08-20T07:33:25;4.43;;;2.00;;
7531;SDS011;3807;49.030;8.714;2022-08-20T07:35:52;3.37;;;2.40;;
7531;SDS011;3807;49.030;8.714;2022-08-20T07:38:20;4.60;;;2.33;;
7531;SDS011;3807;49.030;8.714;2022-08-20T07:40:50;4.28;;;2.50;;
7531;SDS011;3807;49.030;8.714;2022-08-20T07:43:17;2.95;;;2.28;;
7531;SDS011;3807;49.030;8.714;2022-08-20T07:45:43;5.37;;;2.30;;
7531;SDS011;3807;49.030;8.714;2022-08-20T07:48:10;2.90;;;2.30;;
7531;SDS011;3807;49.030;8.714;2022-08-20T07:50:37;2.10;;;1.90;;
7531;SDS011;3807;49.030;8.714;2022-08-20T07:53:02;3.20;;;2.70;;
7531;SDS011;3807;49.030;8.714;2022-08-20T07:55:28;2.83;;;2.20;;
7531;SDS011;3807;49.030;8.714;2022-08-20T07:57:54;4.35;;;2.35;;
7531;SDS011;3807;49.030;8.714;2022-08-20T08:00:22;6.57;;;2.50;;
7531;SDS011;3807;49.030;8.714;2022-08-20T08:02:48;5.07;;;2.20;;
7531;SDS011;3807;49.030;8.714;2022-08-20T08:05:14;3.17;;;2.35;;
7531;SDS011;3807;49.030;8.714;2022-08-20T08:07:42;4.50;;;3.05;;
7531;SDS011;3807;49.030;8.714;2022-08-20T08:10:11;4.03;;;2.53;;
7531;SDS011;3807;49.030;8.714;2022-08-20T08:12:42;3.53;;;2.60;;
7531;SDS011;3807;49.030;8.714;2022-08-20T08:15:12;5.28;;;2.37;;
7531;SDS011;3807;49.030;8.714;2022-08-20T08:17:41;3.72;;;2.28;;
7531;SDS011;3807;49.030;8.714;2022-08-20T08:20:08;3.58;;;2.40;;
7531;SDS011;3807;49.030;8.714;2022-08-20T08:22:36;3.72;;;2.47;;
7531;SDS011;3807;49.030;8.714;2022-08-20T08:25:03;3.10;;;2.47;;
7531;SDS011;3807;49.030;8.714;2022-08-20T08:27:29;3.80;;;2.30;;
7531;SDS011;3807;49.030;8.714;2022-08-20T08:29:59;3.08;;;2.40;;
7531;SDS011;3807;49.030;8.714;2022-08-20T08:32:25;3.47;;;2.53;;
7531;SDS011;3807;49.030;8.714;2022-08-20T08:34:50;4.47;;;2.50;;
7531;SDS011;3807;49.030;8.714;2022-08-20T08:37:16;4.53;;;2.40;;
7531;SDS011;3807;49.030;8.714;2022-08-20T08:39:41;3.90;;;2.20;;
7531;SDS011;3807;49.030;8.714;2022-08-20T08:44:51;2.97;;;2.55;;
7531;SDS011;3807;49.030;8.714;2022-08-20T08:47:20;3.53;;;2.55;;
7531;SDS011;3807;49.030;8.714;2022-08-20T08:49:51;2.58;;;2.37;;
7531;SDS011;3807;49.030;8.714;2022-08-20T08:52:20;2.62;;;2.42;;
7531;SDS011;3807;49.030;8.714;2022-08-20T08:54:54;2.85;;;1.80;;
7531;SDS011;3807;49.030;8.714;2022-08-20T08:57:24;6.12;;;2.20;;
7531;SDS011;3807;49.030;8.714;2022-08-20T08:59:58;4.32;;;1.90;;
7531;SDS011;3807;49.030;8.714;2022-08-20T09:02:26;2.00;;;1.85;;
7531;SDS011;3807;49.030;8.714;2022-08-20T09:04:56;4.75;;;1.85;;
7531;SDS011;3807;49.030;8.714;2022-08-20T09:07:25;3.83;;;2.17;;
7531;SDS011;3807;49.030;8.714;2022-08-20T09:09:55;2.42;;;1.90;;
7531;SDS011;3807;49.030;8.714;2022-08-20T09:12:21;2.62;;;2.00;;
7531;SDS011;3807;49.030;8.714;2022-08-20T09:14:49;4.07;;;2.00;;
7531;SDS011;3807;49.030;8.714;2022-08-20T09:17:16;4.03;;;2.00;;
7531;SDS011;3807;49.030;8.714;2022-08-20T09:19:44;2.62;;;1.90;;
7531;SDS011;3807;49.030;8.714;2022-08-20T09:22:11;2.10;;;1.62;;
7531;SDS011;3807;49.030;8.714;2022-08-20T09:24:39;6.40;;;1.83;;
7531;SDS011;3807;49.030;8.714;2022-08-20T09:27:05;2.83;;;2.00;;
7531;SDS011;3807;49.030;8.714;2022-08-20T09:29:31;3.45;;;2.30;;
7531;SDS011;3807;49.030;8.714;2022-08-20T09:32:06;4.10;;;1.80;;
7531;SDS011;3807;49.030;8.714;2022-08-20T09:34:35;3.28;;;1.90;;
7531;SDS011;3807;49.030;8.714;2022-08-20T09:37:04;3.25;;;1.70;;
7531;SDS011;3807;49.030;8.714;2022-08-20T09:39:30;3.78;;;1.83;;
7531;SDS011;3807;49.030;8.714;2022-08-20T09:42:05;2.03;;;1.80;;
7531;SDS011;3807;49.030;8.714;2022-08-20T09:44:41;1.98;;;1.37;;
7531;SDS011;3807;49.030;8.714;2022-08-20T09:47:07;3.28;;;1.60;;
7531;SDS011;3807;49.030;8.714;2022-08-20T09:49:32;3.65;;;1.80;;
7531;SDS011;3807;49.030;8.714;2022-08-20T09:51:58;1.67;;;1.48;;
7531;SDS011;3807;49.030;8.714;2022-08-20T09:54:25;3.10;;;1.75;;
7531;SDS011;3807;49.030;8.714;2022-08-20T09:56:54;2.22;;;1.40;;
7531;SDS011;3807;49.030;8.714;2022-08-20T09:59:24;2.25;;;1.70;;
7531;SDS011;3807;49.030;8.714;2022-08-20T10:01:51;1.92;;;1.50;;
7531;SDS011;3807;49.030;8.714;2022-08-20T10:04:17;3.35;;;1.70;;
7531;SDS011;3807;49.030;8.714;2022-08-20T10:06:42;2.95;;;1.65;;
7531;SDS011;3807;49.030;8.714;2022-08-20T10:09:07;2.90;;;1.60;;
7531;SDS011;3807;49.030;8.714;2022-08-20T10:11:33;2.12;;;1.48;;
7531;SDS011;3807;49.030;8.714;2022-08-20T10:13:58;1.60;;;1.50;;
7531;SDS011;3807;49.030;8.714;2022-08-20T10:16:23;3.83;;;1.62;;
7531;SDS011;3807;49.030;8.714;2022-08-20T10:18:49;2.15;;;1.70;;
7531;SDS011;3807;49.030;8.714;2022-08-20T10:21:14;2.53;;;1.45;;
7531;SDS011;3807;49.030;8.714;2022-08-20T10:23:40;2.33;;;1.50;;
7531;SDS011;3807;49.030;8.714;2022-08-20T10:26:09;2.03;;;1.40;;
7531;SDS011;3807;49.030;8.714;2022-08-20T10:28:36;2.53;;;1.40;;
7531;SDS011;3807;49.030;8.714;2022-08-20T10:31:04;2.55;;;1.42;;
7531;SDS011;3807;49.030;8.714;2022-08-20T10:33:31;4.12;;;1.40;;
7531;SDS011;3807;49.030;8.714;2022-08-20T10:35:56;4.05;;;1.17;;
7531;SDS011;3807;49.030;8.714;2022-08-20T10:38:21;2.53;;;1.42;;
7531;SDS011;3807;49.030;8.714;2022-08-20T10:40:47;1.60;;;1.20;;
7531;SDS011;3807;49.030;8.714;2022-08-20T10:43:12;1.55;;;1.42;;
7531;SDS011;3807;49.030;8.714;2022-08-20T10:45:38;2.08;;;1.42;;
7531;SDS011;3807;49.030;8.714;2022-08-20T10:48:03;1.90;;;1.35;;
7531;SDS011;3807;49.030;8.714;2022-08-20T10:50:28;2.35;;;1.60;;
7531;SDS011;3807;49.030;8.714;2022-08-20T10:52:54;1.60;;;1.23;;
7531;SDS011;3807;49.030;8.714;2022-08-20T10:55:19;3.60;;;1.10;;
7531;SDS011;3807;49.030;8.714;2022-08-20T10:57:45;2.55;;;1.40;;
7531;SDS011;3807;49.030;8.714;2022-08-20T11:00:12;2.28;;;1.00;;
7531;SDS011;3807;49.030;8.714;2022-08-20T11:02:39;1.08;;;0.85;;
7531;SDS011;3807;49.030;8.714;2022-08-20T11:05:04;1.05;;;0.95;;
7531;SDS011;3807;49.030;8.714;2022-08-20T11:07:31;1.10;;;1.00;;
7531;SDS011;3807;49.030;8.714;2022-08-20T11:10:02;0.90;;;0.90;;
7531;SDS011;3807;49.030;8.714;2022-08-20T11:12:28;1.33;;;1.10;;
7531;SDS011;3807;49.030;8.714;2022-08-20T11:14:53;4.90;;;1.20;;
7531;SDS011;3807;49.030;8.714;2022-08-20T11:17:39;1.35;;;1.00;;
7531;SDS011;3807;49.030;8.714;2022-08-20T11:20:05;1.10;;;1.00;;
7531;SDS011;3807;49.030;8.714;2022-08-20T11:22:32;3.50;;;1.33;;
7531;SDS011;3807;49.030;8.714;2022-08-20T11:24:58;2.50;;;1.17;;
7531;SDS011;3807;49.030;8.714;2022-08-20T11:27:25;1.33;;;0.90;;
7531;SDS011;3807;49.030;8.714;2022-08-20T11:29:52;1.12;;;1.02;;
7531;SDS011;3807;49.030;8.714;2022-08-20T11:32:18;1.08;;;0.90;;
7531;SDS011;3807;49.030;8.714;2022-08-20T11:34:44;1.15;;;0.85;;
7531;SDS011;3807;49.030;8.714;2022-08-20T11:37:10;1.35;;;1.00;;
7531;SDS011;3807;49.030;8.714;2022-08-20T11:39:37;0.80;;;0.80;;
7531;SDS011;3807;49.030;8.714;2022-08-20T11:42:03;1.42;;;0.85;;
7531;SDS011;3807;49.030;8.714;2022-08-20T11:44:28;1.98;;;1.20;;
7531;SDS011;3807;49.030;8.714;2022-08-20T11:46:54;0.98;;;0.82;;
7531;SDS011;3807;49.030;8.714;2022-08-20T11:49:22;1.15;;;1.02;;
7531;SDS011;3807;49.030;8.714;2022-08-20T11:51:47;0.82;;;0.82;;
7531;SDS011;3807;49.030;8.714;2022-08-20T11:54:12;2.33;;;1.00;;
7531;SDS011;3807;49.030;8.714;2022-08-20T11:56:38;1.10;;;1.00;;
7531;SDS011;3807;49.030;8.714;2022-08-20T11:59:03;1.15;;;1.00;;
7531;SDS011;3807;49.030;8.714;2022-08-20T12:01:28;2.03;;;0.93;;
7531;SDS011;3807;49.030;8.714;2022-08-20T12:03:55;1.02;;;1.00;;
7531;SDS011;3807;49.030;8.714;2022-08-20T12:06:20;1.20;;;1.10;;
7531;SDS011;3807;49.030;8.714;2022-08-20T12:08:45;1.15;;;1.00;;
7531;SDS011;3807;49.030;8.714;2022-08-20T12:11:11;3.00;;;1.10;;
7531;SDS011;3807;49.030;8.714;2022-08-20T12:13:36;1.10;;;1.00;;
7531;SDS011;3807;49.030;8.714;2022-08-20T12:16:02;1.10;;;0.95;;
7531;SDS011;3807;49.030;8.714;2022-08-20T12:18:29;1.17;;;1.08;;
7531;SDS011;3807;49.030;8.714;2022-08-20T12:20:55;2.15;;;1.10;;
7531;SDS011;3807;49.030;8.714;2022-08-20T12:23:21;1.40;;;1.02;;
7531;SDS011;3807;49.030;8.714;2022-08-20T12:25:46;1.23;;;1.00;;
7531;SDS011;3807;49.030;8.714;2022-08-20T12:28:12;1.75;;;1.15;;
7531;SDS011;3807;49.030;8.714;2022-08-20T12:30:38;7.95;;;1.85;;
7531;SDS011;3807;49.030;8.714;2022-08-20T12:33:04;2.15;;;1.23;;
7531;SDS011;3807;49.030;8.714;2022-08-20T12:35:29;1.25;;;0.90;;
7531;SDS011;3807;49.030;8.714;2022-08-20T12:37:56;1.02;;;0.93;;
7531;SDS011;3807;49.030;8.714;2022-08-20T12:40:23;0.98;;;0.88;;
7531;SDS011;3807;49.030;8.714;2022-08-20T12:42:49;3.40;;;0.70;;
7531;SDS011;3807;49.030;8.714;2022-08-20T12:45:15;1.83;;;0.70;;
7531;SDS011;3807;49.030;8.714;2022-08-20T12:47:42;0.93;;;0.70;;
7531;SDS011;3807;49.030;8.714;2022-08-20T12:50:10;0.90;;;0.88;;
7531;SDS011;3807;49.030;8.714;2022-08-20T12:52:38;3.58;;;0.70;;
7531;SDS011;3807;49.030;8.714;2022-08-20T12:55:03;2.40;;;1.00;;
7531;SDS011;3807;49.030;8.714;2022-08-20T12:57:31;1.10;;;1.00;;
7531;SDS011;3807;49.030;8.714;2022-08-20T13:00:02;1.37;;;0.75;;
7531;SDS011;3807;49.030;8.714;2022-08-20T13:02:33;1.50;;;1.00;;
7531;SDS011;3807;49.030;8.714;2022-08-20T13:04:58;1.12;;;0.80;;
7531;SDS011;3807;49.030;8.714;2022-08-20T13:07:23;1.65;;;0.68;;
7531;SDS011;3807;49.030;8.714;2022-08-20T13:09:49;2.90;;;0.57;;
7531;SDS011;3807;49.030;8.714;2022-08-20T13:12:14;1.40;;;0.88;;
7531;SDS011;3807;49.030;8.714;2022-08-20T13:14:40;2.03;;;0.60;;
7531;SDS011;3807;49.030;8.714;2022-08-20T13:17:06;1.90;;;0.47;;
7531;SDS011;3807;49.030;8.714;2022-08-20T13:19:32;2.17;;;0.57;;
7531;SDS011;3807;49.030;8.714;2022-08-20T13:21:59;1.05;;;0.50;;
7531;SDS011;3807;49.030;8.714;2022-08-20T13:24:25;0.85;;;0.50;;
7531;SDS011;3807;49.030;8.714;2022-08-20T13:26:50;0.45;;;0.45;;
7531;SDS011;3807;49.030;8.714;2022-08-20T13:29:17;0.50;;;0.50;;
7531;SDS011;3807;49.030;8.714;2022-08-20T13:31:43;0.70;;;0.47;;
7531;SDS011;3807;49.030;8.714;2022-08-20T13:34:09;0.60;;;0.50;;
7531;SDS011;3807;49.030;8.714;2022-08-20T13:36:34;0.40;;;0.40;;
7531;SDS011;3807;49.030;8.714;2022-08-20T13:39:01;0.40;;;0.40;;
7531;SDS011;3807;49.030;8.714;2022-08-20T13:41:28;0.73;;;0.52;;
7531;SDS011;3807;49.030;8.714;2022-08-20T13:43:53;1.02;;;0.68;;
7531;SDS011;3807;49.030;8.714;2022-08-20T13:46:18;0.60;;;0.50;;
7531;SDS011;3807;49.030;8.714;2022-08-20T13:48:44;0.73;;;0.60;;
7531;SDS011;3807;49.030;8.714;2022-08-20T13:51:10;0.50;;;0.43;;
7531;SDS011;3807;49.030;8.714;2022-08-20T13:53:35;1.98;;;0.47;;
7531;SDS011;3807;49.030;8.714;2022-08-20T13:56:01;0.75;;;0.40;;
7531;SDS011;3807;49.030;8.714;2022-08-20T13:58:26;0.70;;;0.50;;
7531;SDS011;3807;49.030;8.714;2022-08-20T14:00:52;0.40;;;0.40;;
7531;SDS011;3807;49.030;8.714;2022-08-20T14:03:17;1.55;;;0.90;;
7531;SDS011;3807;49.030;8.714;2022-08-20T14:05:42;4.87;;;0.90;;
7531;SDS011;3807;49.030;8.714;2022-08-20T14:08:13;2.03;;;0.60;;
7531;SDS011;3807;49.030;8.714;2022-08-20T14:10:41;0.70;;;0.60;;
7531;SDS011;3807;49.030;8.714;2022-08-20T14:13:08;1.50;;;0.70;;
7531;SDS011;3807;49.030;8.714;2022-08-20T14:15:34;1.37;;;0.80;;
7531;SDS011;3807;49.030;8.714;2022-08-20T14:18:00;0.62;;;0.50;;
7531;SDS011;3807;49.030;8.714;2022-08-20T14:20:27;1.20;;;0.80;;
7531;SDS011;3807;49.030;8.714;2022-08-20T14:22:54;1.20;;;0.80;;
7531;SDS011;3807;49.030;8.714;2022-08-20T14:25:21;0.90;;;0.70;;
7531;SDS011;3807;49.030;8.714;2022-08-20T14:27:47;1.52;;;0.80;;
7531;SDS011;3807;49.030;8.714;2022-08-20T14:30:15;1.23;;;0.68;;
7531;SDS011;3807;49.030;8.714;2022-08-20T14:32:43;0.75;;;0.70;;
7531;SDS011;3807;49.030;8.714;2022-08-20T14:35:09;1.20;;;0.80;;
7531;SDS011;3807;49.030;8.714;2022-08-20T14:37:38;1.25;;;0.90;;
7531;SDS011;3807;49.030;8.714;2022-08-20T14:40:09;1.42;;;0.75;;
7531;SDS011;3807;49.030;8.714;2022-08-20T14:42:36;1.15;;;0.85;;
7531;SDS011;3807;49.030;8.714;2022-08-20T14:45:02;1.15;;;0.80;;
7531;SDS011;3807;49.030;8.714;2022-08-20T14:47:32;1.87;;;0.90;;
7531;SDS011;3807;49.030;8.714;2022-08-20T14:50:01;1.00;;;0.80;;
7531;SDS011;3807;49.030;8.714;2022-08-20T14:52:30;1.20;;;0.60;;
7531;SDS011;3807;49.030;8.714;2022-08-20T14:55:00;1.12;;;0.70;;
7531;SDS011;3807;49.030;8.714;2022-08-20T14:57:26;6.68;;;1.20;;
7531;SDS011;3807;49.030;8.714;2022-08-20T14:59:52;1.27;;;0.85;;
7531;SDS011;3807;49.030;8.714;2022-08-20T15:02:17;1.02;;;0.80;;
7531;SDS011;3807;49.030;8.714;2022-08-20T15:04:43;1.27;;;0.90;;
7531;SDS011;3807;49.030;8.714;2022-08-20T15:07:23;1.70;;;1.10;;
7531;SDS011;3807;49.030;8.714;2022-08-20T15:09:51;1.05;;;0.80;;
7531;SDS011;3807;49.030;8.714;2022-08-20T15:12:17;1.20;;;0.70;;
7531;SDS011;3807;49.030;8.714;2022-08-20T15:14:43;2.60;;;1.10;;
7531;SDS011;3807;49.030;8.714;2022-08-20T15:17:09;1.25;;;1.05;;
7531;SDS011;3807;49.030;8.714;2022-08-20T15:19:35;3.50;;;1.10;;
7531;SDS011;3807;49.030;8.714;2022-08-20T15:22:00;2.78;;;0.90;;